UPS39 EDDM-EDDK
Flight info
| Callsign | UPS39 |
|---|---|
| Flight time | 1h 5m |
| Altitude | 24000 |
| Route | GIVMI1N GIVMI Y101 ERNAS T161 GOLMO DCT AKANU L603 RATIM DCT ASKIK T840 GULKO |
| Aircraft | B748/H-SDE3FGHIM1M2RWXY/LB1 |
Departure
| Time | 2026-05-04 21:19 |
|---|---|
| Airport | Munich Airport (EDDM) |
Arrival
| Time | 2026-05-04 22:24 |
|---|---|
| Airport | Cologne Bonn Airport (EDDK) |
| Time | Latitude | Longitude | Altitude | Speed | Heading |
|---|---|---|---|---|---|
| 2026-05-04 20:28 | 48.34887 | 11.77168 | 1492 ft | 0 kts | 354° |
| 2026-05-04 20:53 | 48.34875 | 11.77170 | 1476 ft | 3 kts | 354° |
| 2026-05-04 20:53 | 48.34857 | 11.77173 | 1482 ft | 3 kts | 354° |
| 2026-05-04 20:53 | 48.34837 | 11.77177 | 1477 ft | 3 kts | 343° |
| 2026-05-04 20:53 | 48.34817 | 11.77193 | 1477 ft | 3 kts | 315° |
| 2026-05-04 20:54 | 48.34805 | 11.77221 | 1477 ft | 3 kts | 286° |
| 2026-05-04 20:54 | 48.34800 | 11.77251 | 1477 ft | 3 kts | 280° |
| 2026-05-04 20:54 | 48.34799 | 11.77275 | 1479 ft | 0 kts | 265° |
| 2026-05-04 21:00 | 48.34799 | 11.77273 | 1479 ft | 1 kts | 265° |
| 2026-05-04 21:00 | 48.34798 | 11.77264 | 1477 ft | 1 kts | 263° |
| 2026-05-04 21:00 | 48.34795 | 11.77245 | 1471 ft | 4 kts | 259° |
| 2026-05-04 21:01 | 48.34788 | 11.77181 | 1473 ft | 8 kts | 260° |
| 2026-05-04 21:01 | 48.34778 | 11.77084 | 1491 ft | 11 kts | 263° |
| 2026-05-04 21:01 | 48.34769 | 11.76961 | 1483 ft | 13 kts | 264° |
| 2026-05-04 21:01 | 48.34758 | 11.76811 | 1494 ft | 15 kts | 262° |
| 2026-05-04 21:02 | 48.34732 | 11.76681 | 1478 ft | 8 kts | 223° |
| 2026-05-04 21:02 | 48.34701 | 11.76670 | 1482 ft | 5 kts | 187° |
| 2026-05-04 21:02 | 48.34657 | 11.76672 | 1493 ft | 7 kts | 174° |
| 2026-05-04 21:02 | 48.34606 | 11.76681 | 1488 ft | 8 kts | 173° |
| 2026-05-04 21:03 | 48.34523 | 11.76694 | 1484 ft | 15 kts | 172° |
| 2026-05-04 21:03 | 48.34468 | 11.76770 | 1485 ft | 7 kts | 98° |
| 2026-05-04 21:03 | 48.34474 | 11.76842 | 1493 ft | 7 kts | 83° |
| 2026-05-04 21:03 | 48.34483 | 11.76972 | 1485 ft | 17 kts | 83° |
| 2026-05-04 21:04 | 48.34501 | 11.77194 | 1491 ft | 26 kts | 83° |
| 2026-05-04 21:04 | 48.34524 | 11.77481 | 1488 ft | 28 kts | 83° |
| 2026-05-04 21:04 | 48.34546 | 11.77777 | 1484 ft | 28 kts | 84° |
| 2026-05-04 21:04 | 48.34564 | 11.78016 | 1481 ft | 16 kts | 80° |
| 2026-05-04 21:05 | 48.34606 | 11.78069 | 1488 ft | 6 kts | 8° |
| 2026-05-04 21:05 | 48.34627 | 11.78067 | 1482 ft | 0 kts | 356° |
| 2026-05-04 21:06 | 48.34647 | 11.78065 | 1489 ft | 7 kts | 355° |
| 2026-05-04 21:06 | 48.34720 | 11.78054 | 1483 ft | 14 kts | 354° |
| 2026-05-04 21:06 | 48.34831 | 11.78031 | 1477 ft | 17 kts | 340° |
| 2026-05-04 21:07 | 48.34861 | 11.77955 | 1487 ft | 7 kts | 277° |
| 2026-05-04 21:07 | 48.34879 | 11.77899 | 1475 ft | 4 kts | 313° |
| 2026-05-04 21:07 | 48.34942 | 11.77858 | 1478 ft | 14 kts | 345° |
| 2026-05-04 21:07 | 48.35025 | 11.77840 | 1477 ft | 12 kts | 352° |
| 2026-05-04 21:08 | 48.35121 | 11.77822 | 1481 ft | 13 kts | 353° |
| 2026-05-04 21:08 | 48.35143 | 11.77818 | 1475 ft | 0 kts | 354° |
| 2026-05-04 21:08 | 48.35147 | 11.77818 | 1476 ft | 0 kts | 354° |
| 2026-05-04 21:08 | 48.35151 | 11.77817 | 1477 ft | 3 kts | 353° |
| 2026-05-04 21:09 | 48.35205 | 11.77808 | 1479 ft | 15 kts | 354° |
| 2026-05-04 21:09 | 48.35340 | 11.77784 | 1486 ft | 23 kts | 353° |
| 2026-05-04 21:09 | 48.35513 | 11.77753 | 1473 ft | 27 kts | 353° |
| 2026-05-04 21:09 | 48.35699 | 11.77722 | 1480 ft | 24 kts | 354° |
| 2026-05-04 21:10 | 48.35867 | 11.77694 | 1481 ft | 24 kts | 354° |
| 2026-05-04 21:10 | 48.36021 | 11.77667 | 1474 ft | 14 kts | 353° |
| 2026-05-04 21:10 | 48.36073 | 11.77706 | 1466 ft | 11 kts | 53° |
| 2026-05-04 21:10 | 48.36089 | 11.77823 | 1471 ft | 16 kts | 82° |
| 2026-05-04 21:11 | 48.36104 | 11.78017 | 1470 ft | 21 kts | 83° |
| 2026-05-04 21:11 | 48.36124 | 11.78272 | 1469 ft | 28 kts | 83° |
| 2026-05-04 21:11 | 48.36146 | 11.78574 | 1475 ft | 29 kts | 84° |
| 2026-05-04 21:11 | 48.36171 | 11.78895 | 1473 ft | 32 kts | 83° |
| 2026-05-04 21:12 | 48.36197 | 11.79240 | 1475 ft | 33 kts | 83° |
| 2026-05-04 21:12 | 48.36220 | 11.79536 | 1472 ft | 27 kts | 83° |
| 2026-05-04 21:12 | 48.36242 | 11.79826 | 1466 ft | 28 kts | 83° |
| 2026-05-04 21:12 | 48.36265 | 11.80124 | 1468 ft | 29 kts | 83° |
| 2026-05-04 21:13 | 48.36289 | 11.80436 | 1467 ft | 30 kts | 83° |
| 2026-05-04 21:13 | 48.36313 | 11.80757 | 1463 ft | 31 kts | 83° |
| 2026-05-04 21:13 | 48.36336 | 11.81067 | 1466 ft | 28 kts | 84° |
| 2026-05-04 21:13 | 48.36359 | 11.81371 | 1462 ft | 30 kts | 83° |
| 2026-05-04 21:14 | 48.36383 | 11.81674 | 1458 ft | 23 kts | 83° |
| 2026-05-04 21:14 | 48.36396 | 11.81907 | 1466 ft | 20 kts | 94° |
| 2026-05-04 21:14 | 48.36397 | 11.82106 | 1460 ft | 11 kts | 84° |
| 2026-05-04 21:14 | 48.36402 | 11.82174 | 1465 ft | 10 kts | 83° |
| 2026-05-04 21:15 | 48.36425 | 11.82290 | 1461 ft | 10 kts | 47° |
| 2026-05-04 21:15 | 48.36473 | 11.82300 | 1457 ft | 8 kts | 356° |
| 2026-05-04 21:15 | 48.36539 | 11.82277 | 1457 ft | 10 kts | 338° |
| 2026-05-04 21:15 | 48.36569 | 11.82248 | 1460 ft | 0 kts | 321° |
| 2026-05-04 21:16 | 48.36581 | 11.82231 | 1455 ft | 7 kts | 318° |
| 2026-05-04 21:16 | 48.36629 | 11.82143 | 1460 ft | 12 kts | 303° |
| 2026-05-04 21:17 | 48.36673 | 11.82058 | 1459 ft | 8 kts | 307° |
| 2026-05-04 21:17 | 48.36678 | 11.82019 | 1460 ft | 0 kts | 272° |
| 2026-05-04 21:18 | 48.36678 | 11.82018 | 1460 ft | 0 kts | 272° |
| 2026-05-04 21:18 | 48.36653 | 11.81641 | 1458 ft | 90 kts | 263° |
| 2026-05-04 21:18 | 48.36542 | 11.80182 | 1626 ft | 175 kts | 264° |
| 2026-05-04 21:19 | 48.36394 | 11.78304 | 2555 ft | 195 kts | 265° |
| 2026-05-04 21:19 | 48.36244 | 11.76080 | 3168 ft | 228 kts | 265° |
| 2026-05-04 21:19 | 48.36098 | 11.73541 | 3939 ft | 252 kts | 265° |
| 2026-05-04 21:19 | 48.35972 | 11.70985 | 5018 ft | 240 kts | 265° |
| 2026-05-04 21:20 | 48.35926 | 11.68361 | 5366 ft | 264 kts | 277° |
| 2026-05-04 21:20 | 48.36162 | 11.65613 | 5952 ft | 273 kts | 273° |
| 2026-05-04 21:20 | 48.36697 | 11.62937 | 6543 ft | 278 kts | 300° |
| 2026-05-04 21:20 | 48.37767 | 11.60507 | 7101 ft | 281 kts | 303° |
| 2026-05-04 21:21 | 48.38892 | 11.58154 | 7650 ft | 283 kts | 303° |
| 2026-05-04 21:21 | 48.40014 | 11.55769 | 8205 ft | 284 kts | 302° |
| 2026-05-04 21:21 | 48.41134 | 11.53317 | 8777 ft | 284 kts | 302° |
| 2026-05-04 21:21 | 48.42250 | 11.50873 | 9384 ft | 285 kts | 301° |
| 2026-05-04 21:22 | 48.43388 | 11.48399 | 9971 ft | 289 kts | 301° |
| 2026-05-04 21:22 | 48.44547 | 11.45884 | 10527 ft | 293 kts | 302° |
| 2026-05-04 21:22 | 48.45976 | 11.43714 | 11107 ft | 301 kts | 325° |
| 2026-05-04 21:22 | 48.47965 | 11.42543 | 11710 ft | 309 kts | 345° |
| 2026-05-04 21:23 | 48.50135 | 11.41922 | 12326 ft | 325 kts | 348° |
| 2026-05-04 21:23 | 48.52405 | 11.41353 | 12959 ft | 341 kts | 348° |
| 2026-05-04 21:23 | 48.54804 | 11.40716 | 13620 ft | 355 kts | 347° |
| 2026-05-04 21:23 | 48.57235 | 11.40031 | 14194 ft | 362 kts | 347° |
| 2026-05-04 21:24 | 48.59784 | 11.39316 | 14785 ft | 379 kts | 347° |
| 2026-05-04 21:24 | 48.62407 | 11.38600 | 15380 ft | 386 kts | 347° |
| 2026-05-04 21:24 | 48.65058 | 11.37879 | 15977 ft | 391 kts | 347° |
| 2026-05-04 21:24 | 48.67750 | 11.37135 | 16570 ft | 393 kts | 347° |
| 2026-05-04 21:25 | 48.70383 | 11.36010 | 17189 ft | 392 kts | 333° |
| 2026-05-04 21:25 | 48.72696 | 11.33957 | 17827 ft | 392 kts | 324° |
| 2026-05-04 21:25 | 48.74975 | 11.31601 | 18427 ft | 395 kts | 322° |
| 2026-05-04 21:25 | 48.77231 | 11.29242 | 18959 ft | 398 kts | 323° |
| 2026-05-04 21:26 | 48.79549 | 11.26906 | 19522 ft | 402 kts | 324° |
| 2026-05-04 21:26 | 48.81910 | 11.24549 | 20084 ft | 406 kts | 324° |
| 2026-05-04 21:26 | 48.84250 | 11.22170 | 20653 ft | 409 kts | 323° |
| 2026-05-04 21:26 | 48.86494 | 11.19446 | 21263 ft | 411 kts | 315° |
| 2026-05-04 21:27 | 48.88533 | 11.16420 | 21856 ft | 413 kts | 311° |
| 2026-05-04 21:27 | 48.90595 | 11.13292 | 22464 ft | 418 kts | 314° |
| 2026-05-04 21:27 | 48.92742 | 11.10339 | 23100 ft | 422 kts | 316° |
| 2026-05-04 21:27 | 48.94879 | 11.07273 | 23695 ft | 424 kts | 307° |
| 2026-05-04 21:28 | 48.96548 | 11.03529 | 23947 ft | 424 kts | 294° |
| 2026-05-04 21:28 | 48.97624 | 10.99412 | 23974 ft | 419 kts | 286° |
| 2026-05-04 21:28 | 48.98548 | 10.95236 | 23976 ft | 418 kts | 286° |
| 2026-05-04 21:28 | 48.99488 | 10.91052 | 23982 ft | 418 kts | 287° |
| 2026-05-04 21:29 | 49.00428 | 10.86859 | 23992 ft | 419 kts | 286° |
| 2026-05-04 21:29 | 49.01321 | 10.82832 | 23994 ft | 421 kts | 286° |
| 2026-05-04 21:29 | 49.02260 | 10.78584 | 24000 ft | 421 kts | 286° |
| 2026-05-04 21:29 | 49.03201 | 10.74341 | 24009 ft | 421 kts | 286° |
| 2026-05-04 21:30 | 49.04139 | 10.70145 | 24005 ft | 422 kts | 288° |
| 2026-05-04 21:30 | 49.04952 | 10.67420 | 24015 ft | 425 kts | 296° |
| 2026-05-04 21:30 | 49.06620 | 10.63699 | 24012 ft | 429 kts | 308° |
| 2026-05-04 21:30 | 49.09443 | 10.59345 | 24014 ft | 431 kts | 313° |
| 2026-05-04 21:31 | 49.13036 | 10.54046 | 24006 ft | 432 kts | 313° |
| 2026-05-04 21:31 | 49.15188 | 10.50857 | 24012 ft | 432 kts | 313° |
| 2026-05-04 21:31 | 49.17325 | 10.47671 | 24015 ft | 432 kts | 313° |
| 2026-05-04 21:32 | 49.19491 | 10.44444 | 24011 ft | 433 kts | 313° |
| 2026-05-04 21:32 | 49.21636 | 10.41254 | 24013 ft | 433 kts | 313° |
| 2026-05-04 21:32 | 49.23776 | 10.37993 | 24014 ft | 431 kts | 308° |
| 2026-05-04 21:32 | 49.25694 | 10.34445 | 24006 ft | 431 kts | 306° |
| 2026-05-04 21:33 | 49.27585 | 10.30885 | 24007 ft | 431 kts | 306° |
| 2026-05-04 21:33 | 49.29481 | 10.27331 | 24008 ft | 431 kts | 306° |
| 2026-05-04 21:33 | 49.31397 | 10.23754 | 24002 ft | 431 kts | 306° |
| 2026-05-04 21:33 | 49.33282 | 10.20224 | 24001 ft | 432 kts | 306° |
| 2026-05-04 21:34 | 49.35193 | 10.16629 | 23999 ft | 432 kts | 306° |
| 2026-05-04 21:34 | 49.37077 | 10.13080 | 24003 ft | 432 kts | 306° |
| 2026-05-04 21:34 | 49.38987 | 10.09486 | 23998 ft | 432 kts | 306° |
| 2026-05-04 21:34 | 49.40878 | 10.05921 | 24001 ft | 432 kts | 306° |
| 2026-05-04 21:35 | 49.42744 | 10.02393 | 24002 ft | 432 kts | 306° |
| 2026-05-04 21:35 | 49.44648 | 9.98790 | 24002 ft | 432 kts | 306° |
| 2026-05-04 21:35 | 49.46526 | 9.95235 | 24002 ft | 432 kts | 306° |
| 2026-05-04 21:35 | 49.48441 | 9.91603 | 24003 ft | 432 kts | 306° |
| 2026-05-04 21:36 | 49.50334 | 9.88007 | 24000 ft | 432 kts | 306° |
| 2026-05-04 21:36 | 49.52213 | 9.84433 | 24000 ft | 432 kts | 306° |
| 2026-05-04 21:36 | 49.54093 | 9.80852 | 24004 ft | 432 kts | 306° |
| 2026-05-04 21:36 | 49.55987 | 9.77240 | 24001 ft | 431 kts | 306° |
| 2026-05-04 21:37 | 49.57864 | 9.73655 | 24001 ft | 431 kts | 306° |
| 2026-05-04 21:37 | 49.59745 | 9.70058 | 24002 ft | 431 kts | 306° |
| 2026-05-04 21:37 | 49.61619 | 9.66471 | 24002 ft | 430 kts | 306° |
| 2026-05-04 21:37 | 49.63501 | 9.62861 | 24005 ft | 430 kts | 306° |
| 2026-05-04 21:38 | 49.65376 | 9.59261 | 24007 ft | 430 kts | 306° |
| 2026-05-04 21:38 | 49.67234 | 9.55688 | 24006 ft | 429 kts | 306° |
| 2026-05-04 21:38 | 49.69093 | 9.52067 | 24006 ft | 427 kts | 302° |
| 2026-05-04 21:38 | 49.70623 | 9.48176 | 24004 ft | 425 kts | 297° |
| 2026-05-04 21:39 | 49.72086 | 9.44235 | 24010 ft | 425 kts | 296° |
| 2026-05-04 21:39 | 49.73567 | 9.40246 | 24007 ft | 425 kts | 296° |
| 2026-05-04 21:39 | 49.75033 | 9.36295 | 24007 ft | 425 kts | 296° |
| 2026-05-04 21:39 | 49.76498 | 9.32341 | 24006 ft | 425 kts | 296° |
| 2026-05-04 21:40 | 49.77973 | 9.28352 | 24006 ft | 425 kts | 296° |
| 2026-05-04 21:40 | 49.79439 | 9.24377 | 24003 ft | 424 kts | 296° |
| 2026-05-04 21:40 | 49.80886 | 9.20453 | 24010 ft | 424 kts | 296° |
| 2026-05-04 21:40 | 49.82354 | 9.16465 | 24006 ft | 424 kts | 296° |
| 2026-05-04 21:41 | 49.83805 | 9.12516 | 24004 ft | 424 kts | 296° |
| 2026-05-04 21:41 | 49.85275 | 9.08509 | 24001 ft | 424 kts | 296° |
| 2026-05-04 21:41 | 49.86718 | 9.04569 | 23999 ft | 424 kts | 296° |
| 2026-05-04 21:41 | 49.88183 | 9.00564 | 23987 ft | 424 kts | 296° |
| 2026-05-04 21:42 | 49.89629 | 8.96606 | 23986 ft | 424 kts | 296° |
| 2026-05-04 21:42 | 49.91088 | 8.92605 | 23989 ft | 424 kts | 296° |
| 2026-05-04 21:42 | 49.92552 | 8.88584 | 23990 ft | 425 kts | 296° |
| 2026-05-04 21:42 | 49.93984 | 8.84645 | 24006 ft | 425 kts | 296° |
| 2026-05-04 21:43 | 49.95449 | 8.80609 | 23997 ft | 425 kts | 296° |
| 2026-05-04 21:43 | 49.96890 | 8.76633 | 23992 ft | 426 kts | 296° |
| 2026-05-04 21:43 | 49.98334 | 8.72642 | 23996 ft | 426 kts | 295° |
| 2026-05-04 21:43 | 49.99799 | 8.68588 | 23996 ft | 426 kts | 295° |
| 2026-05-04 21:44 | 50.01243 | 8.64583 | 23997 ft | 426 kts | 295° |
| 2026-05-04 21:44 | 50.02690 | 8.60576 | 24004 ft | 427 kts | 297° |
| 2026-05-04 21:44 | 50.04479 | 8.56801 | 24001 ft | 433 kts | 309° |
| 2026-05-04 21:44 | 50.06724 | 8.53668 | 24018 ft | 439 kts | 321° |
| 2026-05-04 21:45 | 50.09365 | 8.51275 | 23999 ft | 444 kts | 333° |
| 2026-05-04 21:45 | 50.12305 | 8.49577 | 23995 ft | 446 kts | 338° |
| 2026-05-04 21:45 | 50.15207 | 8.48005 | 24010 ft | 445 kts | 338° |
| 2026-05-04 21:45 | 50.18126 | 8.46445 | 23998 ft | 442 kts | 338° |
| 2026-05-04 21:46 | 50.21056 | 8.44868 | 24007 ft | 444 kts | 338° |
| 2026-05-04 21:46 | 50.23952 | 8.43294 | 24005 ft | 443 kts | 338° |
| 2026-05-04 21:46 | 50.26886 | 8.41700 | 24003 ft | 443 kts | 338° |
| 2026-05-04 21:46 | 50.29699 | 8.39848 | 24009 ft | 439 kts | 327° |
| 2026-05-04 21:47 | 50.32287 | 8.37355 | 24005 ft | 438 kts | 324° |
| 2026-05-04 21:47 | 50.34864 | 8.34779 | 24009 ft | 437 kts | 324° |
| 2026-05-04 21:47 | 50.37406 | 8.32220 | 24010 ft | 437 kts | 324° |
| 2026-05-04 21:47 | 50.39998 | 8.29633 | 24004 ft | 437 kts | 324° |
| 2026-05-04 21:48 | 50.42559 | 8.27086 | 24009 ft | 437 kts | 324° |
| 2026-05-04 21:48 | 50.45109 | 8.24535 | 24007 ft | 437 kts | 324° |
| 2026-05-04 21:48 | 50.47671 | 8.21959 | 24009 ft | 437 kts | 324° |
| 2026-05-04 21:48 | 50.50217 | 8.19402 | 24007 ft | 437 kts | 324° |
| 2026-05-04 21:49 | 50.52791 | 8.16818 | 24005 ft | 437 kts | 324° |
| 2026-05-04 21:49 | 50.55364 | 8.14231 | 24003 ft | 437 kts | 324° |
| 2026-05-04 21:49 | 50.57897 | 8.11677 | 23981 ft | 435 kts | 324° |
| 2026-05-04 21:49 | 50.60460 | 8.09091 | 23534 ft | 433 kts | 324° |
| 2026-05-04 21:50 | 50.62978 | 8.06543 | 22658 ft | 435 kts | 324° |
| 2026-05-04 21:50 | 50.65519 | 8.03963 | 21706 ft | 438 kts | 324° |
| 2026-05-04 21:50 | 50.68126 | 8.01315 | 20749 ft | 441 kts | 324° |
| 2026-05-04 21:50 | 50.70686 | 7.98714 | 20044 ft | 437 kts | 324° |
| 2026-05-04 21:51 | 50.73218 | 7.96129 | 19423 ft | 431 kts | 322° |
| 2026-05-04 21:51 | 50.75466 | 7.93094 | 18772 ft | 422 kts | 310° |
| 2026-05-04 21:51 | 50.77244 | 7.89441 | 18118 ft | 414 kts | 300° |
| 2026-05-04 21:51 | 50.78792 | 7.85648 | 17389 ft | 410 kts | 300° |
| 2026-05-04 21:52 | 50.80318 | 7.81885 | 16724 ft | 406 kts | 299° |
| 2026-05-04 21:52 | 50.81831 | 7.78151 | 16126 ft | 402 kts | 299° |
| 2026-05-04 21:52 | 50.83341 | 7.74430 | 15591 ft | 398 kts | 300° |
| 2026-05-04 21:52 | 50.84845 | 7.70719 | 15069 ft | 397 kts | 300° |
| 2026-05-04 21:53 | 50.86311 | 7.67092 | 14551 ft | 394 kts | 300° |
| 2026-05-04 21:53 | 50.87770 | 7.63483 | 14008 ft | 375 kts | 300° |
| 2026-05-04 21:53 | 50.89128 | 7.60122 | 13521 ft | 354 kts | 299° |
| 2026-05-04 21:53 | 50.90424 | 7.56903 | 13069 ft | 336 kts | 299° |
| 2026-05-04 21:54 | 50.91648 | 7.53856 | 12634 ft | 322 kts | 299° |
| 2026-05-04 21:54 | 50.92826 | 7.50920 | 12223 ft | 315 kts | 298° |
| 2026-05-04 21:54 | 50.93982 | 7.48037 | 11801 ft | 306 kts | 298° |
| 2026-05-04 21:54 | 50.95100 | 7.45254 | 11423 ft | 294 kts | 298° |
| 2026-05-04 21:55 | 50.96212 | 7.42470 | 11049 ft | 298 kts | 298° |
| 2026-05-04 21:55 | 50.97319 | 7.39701 | 10659 ft | 292 kts | 298° |
| 2026-05-04 21:55 | 50.98391 | 7.37025 | 10276 ft | 285 kts | 298° |
| 2026-05-04 21:55 | 50.99436 | 7.34408 | 9904 ft | 279 kts | 298° |
| 2026-05-04 21:56 | 51.00475 | 7.31797 | 9534 ft | 277 kts | 298° |
| 2026-05-04 21:56 | 51.01496 | 7.29228 | 9169 ft | 275 kts | 298° |
| 2026-05-04 21:56 | 51.02519 | 7.26660 | 8800 ft | 274 kts | 298° |
| 2026-05-04 21:56 | 51.03541 | 7.24091 | 8444 ft | 273 kts | 298° |
| 2026-05-04 21:57 | 51.04554 | 7.21541 | 8090 ft | 272 kts | 298° |
| 2026-05-04 21:57 | 51.05562 | 7.18997 | 7721 ft | 275 kts | 298° |
| 2026-05-04 21:57 | 51.06587 | 7.16410 | 7358 ft | 279 kts | 299° |
| 2026-05-04 21:57 | 51.07533 | 7.13781 | 6988 ft | 271 kts | 286° |
| 2026-05-04 21:58 | 51.07816 | 7.10933 | 6655 ft | 249 kts | 265° |
| 2026-05-04 21:58 | 51.07735 | 7.08295 | 6370 ft | 233 kts | 263° |
| 2026-05-04 21:58 | 51.07632 | 7.05759 | 6063 ft | 223 kts | 263° |
| 2026-05-04 21:58 | 51.07540 | 7.03372 | 5819 ft | 212 kts | 263° |
| 2026-05-04 21:59 | 51.07459 | 7.01098 | 5556 ft | 202 kts | 263° |
| 2026-05-04 21:59 | 51.07380 | 6.98920 | 5326 ft | 192 kts | 263° |
| 2026-05-04 21:59 | 51.07072 | 6.96942 | 5052 ft | 182 kts | 233° |
| 2026-05-04 21:59 | 51.06238 | 6.95428 | 4884 ft | 184 kts | 226° |
| 2026-05-04 22:00 | 51.05376 | 6.93946 | 4616 ft | 179 kts | 226° |
| 2026-05-04 22:00 | 51.04512 | 6.92534 | 4376 ft | 179 kts | 216° |
| 2026-05-04 22:00 | 51.03358 | 6.91919 | 4170 ft | 179 kts | 184° |
| 2026-05-04 22:00 | 51.02163 | 6.92420 | 3913 ft | 181 kts | 145° |
| 2026-05-04 22:01 | 51.01218 | 6.93761 | 3752 ft | 182 kts | 142° |
| 2026-05-04 22:01 | 51.00280 | 6.95096 | 3535 ft | 180 kts | 140° |
| 2026-05-04 22:01 | 50.99350 | 6.96447 | 3312 ft | 180 kts | 140° |
| 2026-05-04 22:01 | 50.98437 | 6.97787 | 3079 ft | 179 kts | 140° |
| 2026-05-04 22:02 | 50.97519 | 6.99126 | 2822 ft | 179 kts | 140° |
| 2026-05-04 22:02 | 50.96596 | 7.00467 | 2573 ft | 178 kts | 140° |
| 2026-05-04 22:02 | 50.95691 | 7.01780 | 2349 ft | 177 kts | 140° |
| 2026-05-04 22:02 | 50.94818 | 7.03064 | 2111 ft | 166 kts | 139° |
| 2026-05-04 22:03 | 50.93971 | 7.04295 | 1876 ft | 162 kts | 139° |
| 2026-05-04 22:03 | 50.93132 | 7.05511 | 1652 ft | 161 kts | 139° |
| 2026-05-04 22:03 | 50.92309 | 7.06704 | 1436 ft | 160 kts | 138° |
| 2026-05-04 22:03 | 50.91539 | 7.07835 | 1162 ft | 147 kts | 138° |
| 2026-05-04 22:04 | 50.90776 | 7.08941 | 980 ft | 145 kts | 137° |
| 2026-05-04 22:04 | 50.90035 | 7.10013 | 787 ft | 145 kts | 136° |
| 2026-05-04 22:04 | 50.89291 | 7.11095 | 626 ft | 145 kts | 135° |
| 2026-05-04 22:04 | 50.88560 | 7.12170 | 468 ft | 145 kts | 137° |
| 2026-05-04 22:05 | 50.87822 | 7.13229 | 332 ft | 144 kts | 135° |
| 2026-05-04 22:05 | 50.87093 | 7.14283 | 308 ft | 137 kts | 137° |
| 2026-05-04 22:05 | 50.86379 | 7.15337 | 631 ft | 134 kts | 137° |
| 2026-05-04 22:05 | 50.85558 | 7.16449 | 831 ft | 166 kts | 139° |
| 2026-05-04 22:06 | 50.84683 | 7.17654 | 1400 ft | 171 kts | 139° |
| 2026-05-04 22:06 | 50.83754 | 7.18928 | 1893 ft | 186 kts | 141° |
| 2026-05-04 22:06 | 50.82727 | 7.20340 | 2424 ft | 211 kts | 141° |
| 2026-05-04 22:06 | 50.81596 | 7.21925 | 2894 ft | 213 kts | 140° |
| 2026-05-04 22:07 | 50.80499 | 7.23495 | 3436 ft | 216 kts | 140° |
| 2026-05-04 22:07 | 50.79359 | 7.25146 | 3883 ft | 224 kts | 140° |
| 2026-05-04 22:07 | 50.78188 | 7.26855 | 3970 ft | 225 kts | 140° |
| 2026-05-04 22:07 | 50.77019 | 7.28569 | 3974 ft | 227 kts | 140° |
| 2026-05-04 22:08 | 50.75874 | 7.30258 | 3978 ft | 228 kts | 140° |
| 2026-05-04 22:08 | 50.74769 | 7.32068 | 3986 ft | 231 kts | 126° |
| 2026-05-04 22:08 | 50.74177 | 7.34419 | 3993 ft | 237 kts | 101° |
| 2026-05-04 22:08 | 50.74268 | 7.37049 | 4003 ft | 242 kts | 77° |
| 2026-05-04 22:09 | 50.74850 | 7.39561 | 4009 ft | 244 kts | 65° |
| 2026-05-04 22:09 | 50.75820 | 7.41769 | 4003 ft | 246 kts | 51° |
| 2026-05-04 22:09 | 50.76946 | 7.43771 | 4008 ft | 246 kts | 49° |
| 2026-05-04 22:09 | 50.78114 | 7.45767 | 4005 ft | 246 kts | 48° |
| 2026-05-04 22:10 | 50.79267 | 7.47728 | 4001 ft | 245 kts | 48° |
| 2026-05-04 22:10 | 50.80430 | 7.49705 | 4002 ft | 246 kts | 48° |
| 2026-05-04 22:10 | 50.81776 | 7.51339 | 4009 ft | 246 kts | 22° |
| 2026-05-04 22:10 | 50.83431 | 7.51772 | 4008 ft | 244 kts | 351° |
| 2026-05-04 22:11 | 50.84990 | 7.50795 | 4010 ft | 239 kts | 317° |
| 2026-05-04 22:11 | 50.86010 | 7.48780 | 4011 ft | 234 kts | 296° |
| 2026-05-04 22:11 | 50.86792 | 7.46545 | 4002 ft | 233 kts | 296° |
| 2026-05-04 22:11 | 50.87627 | 7.44356 | 4005 ft | 234 kts | 301° |
| 2026-05-04 22:12 | 50.88250 | 7.42922 | 4002 ft | 235 kts | 302° |
| 2026-05-04 22:12 | 50.89183 | 7.40787 | 3996 ft | 234 kts | 301° |
| 2026-05-04 22:12 | 50.90392 | 7.37917 | 3786 ft | 234 kts | 300° |
| 2026-05-04 22:12 | 50.90978 | 7.36512 | 3664 ft | 233 kts | 300° |
| 2026-05-04 22:13 | 50.91886 | 7.34347 | 3496 ft | 234 kts | 300° |
| 2026-05-04 22:13 | 50.92784 | 7.32209 | 3314 ft | 233 kts | 301° |
| 2026-05-04 22:13 | 50.93674 | 7.30087 | 3114 ft | 233 kts | 301° |
| 2026-05-04 22:13 | 50.94574 | 7.27938 | 2983 ft | 229 kts | 301° |
| 2026-05-04 22:14 | 50.95450 | 7.25850 | 2969 ft | 220 kts | 301° |
| 2026-05-04 22:14 | 50.96296 | 7.23825 | 2975 ft | 221 kts | 301° |
| 2026-05-04 22:14 | 50.97150 | 7.21781 | 2978 ft | 222 kts | 301° |
| 2026-05-04 22:14 | 50.97995 | 7.19757 | 2975 ft | 222 kts | 301° |
| 2026-05-04 22:15 | 50.98849 | 7.17713 | 2973 ft | 221 kts | 301° |
| 2026-05-04 22:15 | 50.99688 | 7.15700 | 2975 ft | 221 kts | 301° |
| 2026-05-04 22:15 | 51.00540 | 7.13655 | 2977 ft | 221 kts | 301° |
| 2026-05-04 22:15 | 51.01383 | 7.11631 | 2983 ft | 221 kts | 300° |
| 2026-05-04 22:16 | 51.02240 | 7.09571 | 2978 ft | 220 kts | 301° |
| 2026-05-04 22:16 | 51.03073 | 7.07567 | 2982 ft | 220 kts | 300° |
| 2026-05-04 22:16 | 51.03920 | 7.05527 | 2982 ft | 220 kts | 301° |
| 2026-05-04 22:16 | 51.04766 | 7.03490 | 2984 ft | 220 kts | 300° |
| 2026-05-04 22:17 | 51.05603 | 7.01474 | 2980 ft | 219 kts | 300° |
| 2026-05-04 22:17 | 51.06449 | 6.99433 | 2985 ft | 219 kts | 300° |
| 2026-05-04 22:17 | 51.07279 | 6.97426 | 2983 ft | 219 kts | 300° |
| 2026-05-04 22:17 | 51.08036 | 6.95392 | 2990 ft | 207 kts | 285° |
| 2026-05-04 22:18 | 51.08148 | 6.93137 | 2990 ft | 202 kts | 258° |
| 2026-05-04 22:18 | 51.07607 | 6.91151 | 2995 ft | 199 kts | 231° |
| 2026-05-04 22:18 | 51.06546 | 6.89779 | 3004 ft | 199 kts | 205° |
| 2026-05-04 22:18 | 51.05192 | 6.89347 | 3006 ft | 201 kts | 179° |
| 2026-05-04 22:19 | 51.03883 | 6.90051 | 3000 ft | 205 kts | 148° |
| 2026-05-04 22:19 | 51.02796 | 6.91462 | 3000 ft | 192 kts | 141° |
| 2026-05-04 22:19 | 51.01810 | 6.92879 | 2989 ft | 188 kts | 141° |
| 2026-05-04 22:19 | 51.00851 | 6.94274 | 2984 ft | 187 kts | 141° |
| 2026-05-04 22:20 | 50.99882 | 6.95683 | 2979 ft | 186 kts | 141° |
| 2026-05-04 22:20 | 50.98934 | 6.97060 | 2985 ft | 186 kts | 141° |
| 2026-05-04 22:20 | 50.97978 | 6.98450 | 2879 ft | 188 kts | 141° |
| 2026-05-04 22:20 | 50.97024 | 6.99840 | 2630 ft | 186 kts | 140° |
| 2026-05-04 22:21 | 50.96086 | 7.01216 | 2404 ft | 181 kts | 141° |
| 2026-05-04 22:21 | 50.95201 | 7.02506 | 2161 ft | 165 kts | 140° |
| 2026-05-04 22:21 | 50.94355 | 7.03734 | 1911 ft | 161 kts | 140° |
| 2026-05-04 22:21 | 50.93549 | 7.04904 | 1728 ft | 158 kts | 140° |
| 2026-05-04 22:22 | 50.92724 | 7.06101 | 1504 ft | 159 kts | 139° |
| 2026-05-04 22:22 | 50.91921 | 7.07279 | 1322 ft | 159 kts | 140° |
| 2026-05-04 22:22 | 50.91101 | 7.08465 | 1096 ft | 153 kts | 139° |
| 2026-05-04 22:22 | 50.90338 | 7.09569 | 862 ft | 145 kts | 137° |
| 2026-05-04 22:23 | 50.89611 | 7.10623 | 663 ft | 143 kts | 135° |
| 2026-05-04 22:23 | 50.88894 | 7.11688 | 474 ft | 143 kts | 137° |
| 2026-05-04 22:23 | 50.88166 | 7.12749 | 361 ft | 143 kts | 138° |
| 2026-05-04 22:23 | 50.87440 | 7.13789 | 268 ft | 132 kts | 137° |
| 2026-05-04 22:24 | 50.86775 | 7.14757 | 279 ft | 125 kts | 136° |
| 2026-05-04 22:24 | 50.86209 | 7.15569 | 293 ft | 99 kts | 138° |
| 2026-05-04 22:24 | 50.85836 | 7.16110 | 310 ft | 62 kts | 137° |
| 2026-05-04 22:24 | 50.85634 | 7.16398 | 316 ft | 31 kts | 136° |
| 2026-05-04 22:25 | 50.85497 | 7.16509 | 320 ft | 18 kts | 175° |
| 2026-05-04 22:25 | 50.85393 | 7.16450 | 316 ft | 16 kts | 217° |
| 2026-05-04 22:25 | 50.85341 | 7.16307 | 314 ft | 13 kts | 258° |
| 2026-05-04 22:25 | 50.85358 | 7.16154 | 312 ft | 14 kts | 298° |
| 2026-05-04 22:26 | 50.85416 | 7.16056 | 309 ft | 14 kts | 310° |
| 2026-05-04 22:26 | 50.85500 | 7.15924 | 304 ft | 20 kts | 317° |
| 2026-05-04 22:26 | 50.85607 | 7.15770 | 306 ft | 21 kts | 317° |
| 2026-05-04 22:26 | 50.85718 | 7.15609 | 303 ft | 23 kts | 317° |
| 2026-05-04 22:27 | 50.85842 | 7.15429 | 296 ft | 27 kts | 317° |
| 2026-05-04 22:27 | 50.85987 | 7.15222 | 291 ft | 30 kts | 318° |
| 2026-05-04 22:27 | 50.86151 | 7.14981 | 285 ft | 33 kts | 317° |
| 2026-05-04 22:27 | 50.86325 | 7.14730 | 281 ft | 34 kts | 318° |
| 2026-05-04 22:28 | 50.86499 | 7.14478 | 274 ft | 34 kts | 317° |
| 2026-05-04 22:28 | 50.86669 | 7.14233 | 270 ft | 31 kts | 317° |
| 2026-05-04 22:28 | 50.86805 | 7.14091 | 271 ft | 19 kts | 322° |
| 2026-05-04 22:28 | 50.86872 | 7.13996 | 271 ft | 11 kts | 318° |
| 2026-05-04 22:29 | 50.86938 | 7.13900 | 271 ft | 17 kts | 317° |
| 2026-05-04 22:29 | 50.87024 | 7.13777 | 267 ft | 13 kts | 317° |
| 2026-05-04 22:29 | 50.87102 | 7.13661 | 264 ft | 17 kts | 317° |
| 2026-05-04 22:29 | 50.87165 | 7.13563 | 259 ft | 5 kts | 296° |
| 2026-05-04 22:30 | 50.87160 | 7.13527 | 258 ft | 3 kts | 237° |
| 2026-05-04 22:30 | 50.87150 | 7.13491 | 257 ft | 6 kts | 252° |
| 2026-05-04 22:30 | 50.87131 | 7.13446 | 255 ft | 0 kts | 229° |